Time;durP1;ratioP1;P1;durP2;ratioP2;P2;SDS_P1;SDS_P2;PMS_P1;PMS_P2;Temp;Humidity;BMP_temperature;BMP_pressure;BME280_temperature;BME280_humidity;BME280_pressure;Samples;Min_cycle;Max_cycle;Signal;HPM_P1;HPM_P2
2023/03/29 00:01:24;;;;;;;6.28;5.50;;;;;;;5.02;85.56;148570.69;4975999;28;20031;-67
2023/03/29 00:03:50;;;;;;;7.22;5.15;;;;;;;4.81;85.30;148518.34;4967875;28;20027;-67
2023/03/29 00:06:20;;;;;;;8.60;6.00;;;;;;;4.94;85.93;148551.50;4972225;28;20699;-67
2023/03/29 00:08:52;;;;;;;7.35;6.05;;;;;;;4.86;85.48;148531.13;4967128;28;20335;-66
2023/03/29 00:11:18;;;;;;;6.10;5.10;;;;;;;4.84;85.62;148527.28;4985728;28;20255;-67
2023/03/29 00:13:44;;;;;;;6.85;5.88;;;;;;;4.83;85.79;148524.72;4972987;28;20019;-66
2023/03/29 00:16:11;;;;;;;7.20;6.05;;;;;;;4.81;85.61;148519.59;4976360;28;20035;-67
2023/03/29 00:18:38;;;;;;;6.53;5.85;;;;;;;4.78;86.07;148510.69;4982834;28;20047;-66
2023/03/29 00:21:04;;;;;;;8.30;6.35;;;;;;;4.78;86.09;148510.69;4986481;28;20039;-66
2023/03/29 00:23:30;;;;;;;7.40;6.15;;;;;;;4.75;86.36;148503.03;4986886;28;20086;-67
2023/03/29 00:25:56;;;;;;;6.25;5.70;;;;;;;4.76;85.75;148505.53;4971283;28;20050;-67
2023/03/29 00:28:22;;;;;;;6.72;5.38;;;;;;;4.85;85.88;148528.56;4977211;28;20042;-66
2023/03/29 00:30:49;;;;;;;7.28;6.22;;;;;;;4.87;86.16;148532.38;4987787;28;20251;-66
2023/03/29 00:33:15;;;;;;;7.25;5.85;;;;;;;4.88;85.70;148534.94;5002885;28;20267;-66
2023/03/29 00:35:41;;;;;;;7.03;5.88;;;;;;;4.87;85.64;148533.63;4986524;28;20031;-68
2023/03/29 00:38:07;;;;;;;5.68;5.15;;;;;;;4.80;85.98;148515.75;4968903;28;20038;-66
2023/03/29 00:40:33;;;;;;;5.88;5.25;;;;;;;4.75;85.91;148503.03;4978873;28;20027;-67
2023/03/29 00:42:59;;;;;;;6.30;5.65;;;;;;;4.80;85.62;148515.75;4978618;28;20031;-66
2023/03/29 00:45:30;;;;;;;6.75;5.45;;;;;;;4.68;85.65;148486.41;4966396;28;20027;-67
2023/03/29 00:48:01;;;;;;;7.00;6.03;;;;;;;4.68;86.49;148486.41;4965710;28;20070;-66
2023/03/29 00:50:38;;;;;;;6.43;5.70;;;;;;;4.87;85.75;148533.63;4967120;28;20074;-67
2023/03/29 00:53:17;;;;;;;5.90;5.28;;;;;;;4.86;85.38;148531.13;4981976;28;20038;-67
2023/03/29 00:55:48;;;;;;;7.07;5.30;;;;;;;4.80;85.94;148517.06;4986217;28;20200;-67
2023/03/29 00:58:20;;;;;;;7.55;5.40;;;;;;;4.39;86.71;148414.97;4976235;28;20031;-66
2023/03/29 01:00:54;;;;;;;8.05;5.95;;;;;;;4.77;86.06;148509.38;4986730;28;20031;-66
2023/03/29 01:03:26;;;;;;;6.35;5.60;;;;;;;4.88;85.98;148536.19;4983582;28;20324;-67
2023/03/29 01:06:00;;;;;;;;;;;;;;;4.81;85.97;148519.59;4967311;28;20023;-68
2023/03/29 01:08:31;;;;;;;6.18;5.57;;;;;;;4.81;85.78;148519.59;4985494;28;20028;-67
2023/03/29 01:11:16;;;;;;;6.20;5.40;;;;;;;4.81;85.66;148518.34;4970073;28;20035;-67
2023/03/29 01:13:48;;;;;;;6.40;5.72;;;;;;;4.96;85.46;148556.63;4974570;28;20053;-67
2023/03/29 01:16:19;;;;;;;6.63;5.47;;;;;;;4.85;84.91;148528.56;4985545;28;20321;-66
2023/03/29 01:18:45;;;;;;;7.07;5.78;;;;;;;4.82;85.89;148522.16;4985733;28;20038;-67
2023/03/29 01:21:14;;;;;;;6.75;5.28;;;;;;;4.88;85.62;148534.94;4983888;28;20370;-68
2023/03/29 01:24:05;;;;;;;6.53;5.40;;;;;;;4.81;85.79;148519.59;4966265;28;20035;-67
2023/03/29 01:26:56;;;;;;;6.00;5.32;;;;;;;4.91;85.43;148543.84;4966173;28;20308;-66
2023/03/29 01:29:33;;;;;;;5.80;5.20;;;;;;;4.97;85.31;148557.91;4971633;28;20051;-67
2023/03/29 01:32:07;;;;;;;6.30;5.70;;;;;;;4.91;85.53;148542.59;4991902;28;20046;-66
2023/03/29 01:35:09;;;;;;;6.28;5.68;;;;;;;5.07;85.35;148583.44;4988369;28;20112;-68
2023/03/29 01:38:14;;;;;;;6.22;5.20;;;;;;;5.01;85.28;148568.13;4967734;28;20316;-66
2023/03/29 01:40:40;;;;;;;7.72;5.80;;;;;;;4.98;85.44;148561.72;4971235;28;20039;-66
2023/03/29 01:43:27;;;;;;;6.22;5.22;;;;;;;5.00;85.11;148566.84;4973725;28;20023;-67
2023/03/29 01:46:06;;;;;;;6.95;5.97;;;;;;;4.89;84.93;148538.78;4985016;28;20035;-67
2023/03/29 01:48:31;;;;;;;8.68;6.28;;;;;;;4.88;85.66;148534.94;4981836;28;20102;-67
2023/03/29 01:51:12;;;;;;;8.60;6.20;;;;;;;4.69;86.22;148489.00;4965427;28;20085;-67
2023/03/29 01:53:57;;;;;;;8.73;5.60;;;;;;;4.75;85.71;148503.03;4973604;28;20050;-66
2023/03/29 01:56:27;;;;;;;7.10;6.32;;;;;;;5.01;85.61;148569.38;4983626;28;20035;-66
2023/03/29 01:59:07;;;;;;;6.82;6.13;;;;;;;4.86;85.76;148531.13;4970937;28;20031;-68
2023/03/29 02:01:47;;;;;;;8.07;6.55;;;;;;;4.92;85.30;148545.16;4976491;28;20040;-67
2023/03/29 02:04:17;;;;;;;7.75;5.72;;;;;;;4.77;86.35;148509.38;4976141;28;20098;-67
2023/03/29 02:06:43;;;;;;;7.20;5.93;;;;;;;4.92;85.87;148545.16;4970176;28;20101;-67
2023/03/29 02:09:09;;;;;;;6.40;5.53;;;;;;;4.80;86.15;148517.06;4984517;28;20090;-67
2023/03/29 02:11:35;;;;;;;6.45;5.80;;;;;;;4.85;86.03;148528.56;4965041;28;20224;-67
2023/03/29 02:14:01;;;;;;;8.52;6.30;;;;;;;4.89;85.98;148537.47;4978970;28;20086;-66
2023/03/29 02:16:27;;;;;;;9.23;6.82;;;;;;;4.92;85.54;148545.16;4974383;28;20041;-67
2023/03/29 02:18:55;;;;;;;7.53;6.20;;;;;;;4.89;85.42;148538.78;4971211;28;20027;-66
2023/03/29 02:22:03;;;;;;;7.85;6.45;;;;;;;5.08;85.09;148586.00;4982664;28;20054;-67
2023/03/29 02:24:33;;;;;;;7.03;6.25;;;;;;;5.04;84.93;148574.50;4967552;28;20101;-66
2023/03/29 02:27:00;;;;;;;7.10;5.70;;;;;;;4.91;85.70;148542.59;4984555;28;20027;-66
2023/03/29 02:29:26;;;;;;;7.28;5.63;;;;;;;4.93;85.39;148549.00;4975138;28;20030;-66
2023/03/29 02:32:03;;;;;;;9.00;6.22;;;;;;;4.87;85.49;148532.38;4994968;28;20105;-65
2023/03/29 02:34:36;;;;;;;6.57;5.82;;;;;;;5.01;84.96;148568.13;4993177;28;20203;-67
2023/03/29 02:37:12;;;;;;;6.65;5.70;;;;;;;5.00;85.17;148565.56;4984169;28;20295;-67
2023/03/29 02:39:40;;;;;;;9.52;6.13;;;;;;;5.09;84.49;148587.25;4980540;28;20355;-66
2023/03/29 02:42:07;;;;;;;6.95;6.25;;;;;;;5.11;84.29;148592.38;4964582;28;20043;-66
2023/03/29 02:44:37;;;;;;;6.53;5.82;;;;;;;5.22;84.51;148619.22;4965070;28;20082;-66
2023/03/29 02:47:12;;;;;;;7.00;5.90;;;;;;;5.29;83.99;148637.09;4979893;28;20266;-66
2023/03/29 02:49:38;;;;;;;5.68;4.85;;;;;;;5.28;83.95;148635.78;4972473;28;20255;-66
2023/03/29 02:52:12;;;;;;;5.38;4.88;;;;;;;5.16;84.00;148605.16;4971273;28;20030;-65
2023/03/29 02:54:41;;;;;;;7.55;5.30;;;;;;;5.13;84.47;148598.78;4968157;28;20035;-67
2023/03/29 02:57:09;;;;;;;5.90;5.30;;;;;;;5.12;84.52;148594.94;4983649;28;20031;-68
2023/03/29 02:59:35;;;;;;;8.50;5.80;;;;;;;5.19;84.30;148612.81;4983963;28;20038;-66
2023/03/29 03:02:02;;;;;;;6.07;5.45;;;;;;;5.19;84.38;148612.81;4968920;28;20038;-66
2023/03/29 03:04:28;;;;;;;6.80;5.72;;;;;;;5.29;83.91;148637.09;4964504;28;20039;-66
2023/03/29 03:06:54;;;;;;;6.45;5.47;;;;;;;5.18;84.35;148610.25;4970203;28;20034;-67
2023/03/29 03:09:19;;;;;;;6.38;4.78;;;;;;;5.05;85.05;148577.06;4982445;28;20057;-66
2023/03/29 03:11:45;;;;;;;7.30;4.93;;;;;;;5.18;84.16;148611.53;4963972;28;20374;-66
2023/03/29 03:14:11;;;;;;;6.35;4.72;;;;;;;5.09;84.25;148588.56;4978995;28;20193;-66
2023/03/29 03:16:37;;;;;;;6.55;4.88;;;;;;;5.29;83.66;148638.34;4972572;28;20031;-67
2023/03/29 03:19:03;;;;;;;4.97;4.47;;;;;;;5.32;83.47;148644.75;4971466;28;20042;-66
2023/03/29 03:21:29;;;;;;;8.60;4.88;;;;;;;5.41;83.69;148666.47;4996306;28;20038;-66
2023/03/29 03:23:55;;;;;;;5.18;4.68;;;;;;;5.27;83.97;148631.97;4964682;28;20207;-66
2023/03/29 03:26:22;;;;;;;6.28;4.40;;;;;;;5.31;83.59;148643.44;4981413;28;20023;-68
2023/03/29 03:28:47;;;;;;;5.00;4.28;;;;;;;5.39;83.45;148661.31;4971193;28;20038;-67
2023/03/29 03:31:13;;;;;;;6.13;4.38;;;;;;;5.36;83.08;148656.22;4977164;28;20046;-66
2023/03/29 03:33:39;;;;;;;4.68;4.28;;;;;;;5.31;83.55;148642.19;4995647;28;20066;-67
2023/03/29 03:36:10;;;;;;;6.78;4.25;;;;;;;5.40;83.20;148665.19;4963707;28;20031;-67
2023/03/29 03:38:36;;;;;;;4.82;4.28;;;;;;;5.41;83.18;148666.47;4981028;28;20231;-68
2023/03/29 03:41:03;;;;;;;7.65;4.75;;;;;;;5.55;82.68;148702.22;4981682;28;20022;-68
2023/03/29 03:43:29;;;;;;;6.95;4.97;;;;;;;5.57;82.54;148706.03;4973259;28;20035;-68
2023/03/29 03:45:55;;;;;;;7.22;4.78;;;;;;;5.63;82.48;148722.66;4964215;28;20035;-68
2023/03/29 03:48:21;;;;;;;6.22;5.05;;;;;;;5.70;82.42;148739.22;4979668;28;20046;-68
2023/03/29 03:50:49;;;;;;;5.18;4.70;;;;;;;5.52;82.33;148694.56;4983037;28;20030;-67
2023/03/29 03:53:14;;;;;;;5.75;4.82;;;;;;;5.68;81.49;148735.41;4975395;28;20024;-67
2023/03/29 03:55:40;;;;;;;5.40;4.13;;;;;;;5.49;81.80;148688.16;4971888;28;20053;-68
2023/03/29 03:58:06;;;;;;;5.30;4.75;;;;;;;5.77;81.48;148757.16;4963499;29;20035;-68
2023/03/29 04:00:32;;;;;;;4.82;4.43;;;;;;;5.41;81.99;148666.47;4965893;28;20037;-69
2023/03/29 04:02:58;;;;;;;6.78;4.80;;;;;;;5.84;81.29;148773.75;4983722;28;20030;-68
2023/03/29 04:05:24;;;;;;;7.57;4.38;;;;;;;5.64;81.88;148725.22;4966176;28;20031;-68
2023/03/29 04:07:49;;;;;;;7.22;4.63;;;;;;;5.84;81.06;148775.03;4976631;28;20054;-67
2023/03/29 04:10:16;;;;;;;6.10;4.07;;;;;;;5.96;80.56;148803.16;4977415;28;20039;-67
2023/03/29 04:12:41;;;;;;;5.15;4.65;;;;;;;5.99;80.94;148812.13;4970666;28;20042;-68
2023/03/29 04:15:07;;;;;;;10.52;5.88;;;;;;;5.95;80.56;148800.59;4986944;28;20114;-66
2023/03/29 04:17:33;;;;;;;8.18;5.07;;;;;;;6.02;80.39;148819.78;4967847;28;20054;-67
2023/03/29 04:20:01;;;;;;;8.38;5.15;;;;;;;5.88;80.52;148783.97;4980574;28;20069;-66
2023/03/29 04:22:26;;;;;;;7.15;4.80;;;;;;;5.97;80.62;148807.03;4977236;28;20323;-66
2023/03/29 04:24:52;;;;;;;5.55;4.13;;;;;;;5.94;80.47;148798.03;4970665;28;20033;-66
2023/03/29 04:27:18;;;;;;;6.93;4.43;;;;;;;5.88;80.36;148785.22;4985900;28;20050;-65
2023/03/29 04:29:43;;;;;;;6.13;4.72;;;;;;;5.97;80.04;148805.69;4967282;28;20035;-66
2023/03/29 04:32:10;;;;;;;8.50;5.93;;;;;;;6.08;80.24;148832.59;4994539;28;20164;-66
2023/03/29 04:34:36;;;;;;;5.50;4.53;;;;;;;6.02;79.75;148819.78;4993844;28;20220;-67
2023/03/29 04:37:08;;;;;;;6.43;4.47;;;;;;;6.02;80.12;148818.53;4979029;28;20154;-68
2023/03/29 04:39:34;;;;;;;7.40;4.93;;;;;;;6.23;79.81;148870.94;4969220;28;20053;-66
2023/03/29 04:42:02;;;;;;;8.55;4.90;;;;;;;6.11;79.75;148841.50;4986174;28;20102;-70
2023/03/29 04:44:27;;;;;;;6.30;4.50;;;;;;;6.00;79.89;148813.38;4968196;28;20043;-67
2023/03/29 04:46:53;;;;;;;7.07;4.55;;;;;;;6.12;79.81;148842.81;4979430;28;20049;-67
2023/03/29 04:49:18;;;;;;;4.55;4.15;;;;;;;6.08;80.34;148832.59;4978002;28;20058;-68
2023/03/29 04:51:44;;;;;;;10.70;4.60;;;;;;;6.14;79.84;148849.22;4969857;28;20262;-67
2023/03/29 04:54:10;;;;;;;6.63;4.22;;;;;;;6.00;80.00;148813.38;5000669;28;20033;-67
2023/03/29 04:56:36;;;;;;;4.63;3.70;;;;;;;6.05;79.97;148827.44;4985929;28;20030;-67
2023/03/29 04:59:02;;;;;;;4.95;4.03;;;;;;;5.97;80.09;148805.69;4972071;28;20023;-67
2023/03/29 05:01:28;;;;;;;7.70;4.65;;;;;;;6.13;80.04;148845.34;4974905;28;20331;-67
2023/03/29 05:03:53;;;;;;;5.30;4.10;;;;;;;6.24;79.37;148872.19;4985376;28;20350;-67
2023/03/29 05:06:20;;;;;;;5.32;4.38;;;;;;;6.40;78.84;148913.13;4985076;28;20284;-67
2023/03/29 05:08:45;;;;;;;4.88;4.38;;;;;;;6.43;78.69;148920.78;4985172;28;20026;-68
2023/03/29 05:11:12;;;;;;;6.20;3.78;;;;;;;6.31;78.79;148890.09;4986851;28;20078;-68
2023/03/29 05:13:38;;;;;;;8.55;4.75;;;;;;;6.35;78.53;148900.31;4987942;28;20101;-68
2023/03/29 05:16:04;;;;;;;7.63;4.18;;;;;;;6.37;78.46;148906.72;4994048;28;20035;-68
2023/03/29 05:18:30;;;;;;;4.40;4.00;;;;;;;6.38;78.52;148907.97;4981448;28;20243;-67
2023/03/29 05:20:57;;;;;;;5.88;4.03;;;;;;;6.45;78.45;148924.59;4984644;28;20054;-67
2023/03/29 05:23:23;;;;;;;6.55;4.43;;;;;;;6.49;78.44;148934.84;4984432;28;20040;-67
2023/03/29 05:25:51;;;;;;;5.53;4.38;;;;;;;6.59;78.28;148959.13;4973318;28;20054;-68
2023/03/29 05:28:18;;;;;;;5.65;4.28;;;;;;;6.61;78.16;148964.22;4973352;28;20031;-68
2023/03/29 05:30:44;;;;;;;7.38;4.40;;;;;;;6.69;77.69;148985.94;4984417;28;20039;-68
2023/03/29 05:33:10;;;;;;;8.02;4.70;;;;;;;6.78;77.20;149007.69;4994080;28;20331;-68
2023/03/29 05:35:36;;;;;;;6.13;4.00;;;;;;;6.79;77.02;149010.25;4984003;28;20042;-68
2023/03/29 05:38:03;;;;;;;7.53;4.50;;;;;;;6.79;77.04;149009.00;4971028;28;20366;-67
2023/03/29 05:40:30;;;;;;;9.40;4.32;;;;;;;6.88;76.83;149033.28;4973043;28;20042;-68
2023/03/29 05:42:57;;;;;;;5.82;4.07;;;;;;;6.79;76.76;149010.25;4991401;28;20018;-68
2023/03/29 05:45:23;;;;;;;9.13;4.68;;;;;;;6.80;76.44;149011.50;4994210;28;20285;-67
2023/03/29 05:47:49;;;;;;;5.90;4.63;;;;;;;6.83;76.71;149019.22;4994948;28;20321;-67
2023/03/29 05:50:15;;;;;;;5.30;4.15;;;;;;;6.78;76.36;149006.41;4995578;28;20038;-68
2023/03/29 05:52:41;;;;;;;5.93;4.45;;;;;;;7.04;76.02;149072.91;4992527;28;20026;-68
2023/03/29 05:55:08;;;;;;;9.85;4.72;;;;;;;7.04;76.56;149072.91;4992964;28;20389;-68
2023/03/29 05:57:37;;;;;;;6.70;3.95;;;;;;;7.08;75.30;149081.84;4984969;28;20077;-68
2023/03/29 06:00:30;;;;;;;5.25;4.20;;;;;;;7.23;75.63;149120.22;4984853;28;20337;-67
2023/03/29 06:02:52;;;;;;;9.15;4.55;;;;;;;7.40;75.34;149161.19;4964905;28;20043;-67
2023/03/29 06:05:21;;;;;;;9.80;4.38;;;;;;;7.30;74.82;149135.59;4980267;28;20117;-66
2023/03/29 06:07:47;;;;;;;5.35;4.22;;;;;;;7.41;74.47;149165.00;4993994;28;20034;-67
2023/03/29 06:10:14;;;;;;;6.10;4.10;;;;;;;7.42;74.20;149167.59;4995321;28;20238;-68
2023/03/29 06:12:40;;;;;;;7.45;3.33;;;;;;;7.47;73.95;149179.09;4993773;28;20089;-67
2023/03/29 06:15:07;;;;;;;7.90;4.28;;;;;;;7.59;72.63;149209.75;4993268;28;20022;-67
2023/03/29 06:17:33;;;;;;;6.80;4.03;;;;;;;7.59;73.36;149209.75;4994364;28;20210;-69
2023/03/29 06:19:59;;;;;;;6.82;4.60;;;;;;;7.71;73.17;149237.91;4993620;28;20027;-67
2023/03/29 06:22:26;;;;;;;4.07;3.42;;;;;;;7.62;73.09;149216.16;4993812;28;20046;-67
2023/03/29 06:24:52;;;;;;;4.70;3.47;;;;;;;7.53;72.60;149194.44;4984746;28;20343;-68
2023/03/29 06:27:18;;;;;;;8.73;3.63;;;;;;;7.64;72.71;149220.00;4990878;28;20023;-67
2023/03/29 06:29:44;;;;;;;8.32;3.78;;;;;;;7.75;71.82;149248.16;4994404;28;20041;-67
2023/03/29 06:32:10;;;;;;;6.68;3.63;;;;;;;7.83;72.22;149267.38;4991386;28;20632;-67
2023/03/29 06:34:36;;;;;;;4.80;3.42;;;;;;;7.78;71.49;149255.81;4989501;28;20061;-67
2023/03/29 06:37:02;;;;;;;7.28;3.80;;;;;;;7.82;72.39;149264.81;4986931;28;20106;-67
2023/03/29 06:39:28;;;;;;;7.82;4.45;;;;;;;7.93;70.89;149294.22;4983807;28;20102;-66
2023/03/29 06:41:54;;;;;;;6.90;3.63;;;;;;;7.82;71.27;149264.81;4964280;28;20063;-68
2023/03/29 06:44:20;;;;;;;4.35;3.38;;;;;;;7.91;70.95;149289.13;4978211;28;20134;-67
2023/03/29 06:46:46;;;;;;;10.32;3.92;;;;;;;8.12;70.98;149340.28;4973395;28;20051;-67
2023/03/29 06:49:12;;;;;;;5.55;3.25;;;;;;;8.12;70.41;149341.59;4963856;28;20320;-67
2023/03/29 06:51:39;;;;;;;5.40;3.22;;;;;;;8.11;71.56;149339.03;4984635;28;20109;-67
2023/03/29 06:54:04;;;;;;;7.20;3.80;;;;;;;8.21;71.25;149362.06;4983004;28;20042;-67
2023/03/29 06:56:31;;;;;;;4.82;4.10;;;;;;;8.08;71.09;149331.38;4991473;28;20072;-68
2023/03/29 06:58:56;;;;;;;7.25;3.70;;;;;;;8.19;72.07;149358.22;4992274;28;20031;-67
2023/03/29 07:01:22;;;;;;;5.07;3.30;;;;;;;8.08;72.10;149330.06;4994418;28;20050;-68
2023/03/29 07:04:23;;;;;;;6.13;4.28;;;;;;;7.91;72.85;149289.13;4994678;28;20267;-68
2023/03/29 07:07:00;;;;;;;5.85;3.90;;;;;;;8.17;72.31;149351.84;4990998;28;20029;-69
2023/03/29 07:09:52;;;;;;;4.03;3.30;;;;;;;8.02;72.44;149315.97;4994011;28;20030;-70
2023/03/29 07:12:20;;;;;;;6.78;3.63;;;;;;;7.97;71.52;149303.22;4992665;28;20034;-68
2023/03/29 07:14:47;;;;;;;5.32;3.70;;;;;;;8.29;72.24;149382.53;4993044;28;20153;-69
2023/03/29 07:17:17;;;;;;;7.03;4.28;;;;;;;8.25;71.95;149372.28;4993823;28;20030;-69
2023/03/29 07:19:45;;;;;;;8.27;4.05;;;;;;;8.19;71.40;149356.94;4991930;28;20061;-68
2023/03/29 07:22:20;;;;;;;8.98;4.25;;;;;;;8.20;73.30;149359.53;4994321;28;20034;-69
2023/03/29 07:25:08;;;;;;;8.65;4.35;;;;;;;8.16;72.56;149350.53;4990694;28;20311;-69
2023/03/29 07:27:55;;;;;;;4.72;3.95;;;;;;;8.00;72.47;149310.88;4993360;28;20154;-69
2023/03/29 07:30:27;;;;;;;5.05;3.65;;;;;;;7.90;72.32;149286.56;4988736;28;20098;-68
2023/03/29 07:32:54;;;;;;;5.47;4.15;;;;;;;7.92;72.75;149290.38;4992639;28;20027;-68
2023/03/29 07:35:22;;;;;;;5.65;4.13;;;;;;;7.98;74.17;149305.78;4992289;28;20038;-69
2023/03/29 07:37:57;;;;;;;7.07;3.58;;;;;;;7.86;75.42;149275.03;4991968;28;20041;-68
2023/03/29 07:40:29;;;;;;;6.80;4.05;;;;;;;7.70;76.61;149235.38;4992219;28;20026;-68
2023/03/29 07:42:55;;;;;;;;;;;;;;;7.70;75.87;149236.66;4992991;28;20311;-68
2023/03/29 07:45:27;;;;;;;5.88;3.80;;;;;;;7.65;76.47;149223.84;5004483;28;19929;-68
2023/03/29 07:48:02;;;;;;;4.07;3.65;;;;;;;7.76;76.81;149250.72;4990914;28;20288;-70
2023/03/29 07:50:31;;;;;;;7.85;4.22;;;;;;;7.85;76.35;149273.78;4987820;28;20038;-69
2023/03/29 07:53:00;;;;;;;4.78;3.85;;;;;;;7.95;77.00;149298.06;4981628;28;20038;-69
2023/03/29 07:58:30;;;;;;;;;;;;;;;7.94;76.01;149296.78;4986440;28;20101;-68
2023/03/29 08:00:59;;;;;;;5.57;3.95;;;;;;;7.98;75.44;149305.78;4984751;28;19905;-69
2023/03/29 08:03:28;;;;;;;5.90;4.10;;;;;;;8.13;76.01;149344.13;4988423;28;20019;-68
2023/03/29 08:05:53;;;;;;;5.35;3.95;;;;;;;8.05;74.99;149323.69;4987912;28;20042;-67
2023/03/29 08:08:28;;;;;;;5.75;3.55;;;;;;;8.05;74.34;149322.38;4994276;28;20057;-68
2023/03/29 08:10:56;;;;;;;8.25;4.13;;;;;;;8.03;73.63;149318.53;4992749;28;20102;-69
2023/03/29 08:13:24;;;;;;;9.00;4.25;;;;;;;8.24;74.54;149371.03;4990862;28;20093;-68
2023/03/29 08:15:50;;;;;;;5.25;4.00;;;;;;;8.23;73.56;149367.19;4992115;28;20027;-68
2023/03/29 08:18:16;;;;;;;5.85;3.50;;;;;;;8.37;74.57;149401.78;4988466;28;20098;-68
2023/03/29 08:20:44;;;;;;;5.25;3.72;;;;;;;8.37;74.57;149403.03;4996233;28;20062;-67
2023/03/29 08:23:10;;;;;;;5.47;3.80;;;;;;;8.43;74.65;149418.38;4988838;28;20077;-67
2023/03/29 08:26:09;;;;;;;4.55;3.78;;;;;;;8.50;74.27;149433.84;5000424;28;20219;-68
2023/03/29 08:28:52;;;;;;;4.15;3.70;;;;;;;8.44;75.16;149421.00;4995729;28;20026;-69
2023/03/29 08:31:39;;;;;;;5.22;3.90;;;;;;;8.53;74.88;149441.50;4993699;28;20259;-68
2023/03/29 08:34:05;;;;;;;5.78;3.95;;;;;;;8.41;75.30;149413.28;4984631;28;20042;-67
2023/03/29 08:36:36;;;;;;;5.03;4.05;;;;;;;8.60;75.13;149459.44;4987041;28;20034;-68
2023/03/29 08:39:07;;;;;;;5.63;4.10;;;;;;;8.46;75.82;149426.16;4973198;28;20103;-67
2023/03/29 08:41:55;;;;;;;5.97;4.10;;;;;;;8.66;75.88;149473.50;4980419;28;20039;-68
2023/03/29 08:44:47;;;;;;;4.68;3.88;;;;;;;8.83;74.52;149517.03;4985055;28;20033;-68
2023/03/29 08:47:49;;;;;;;6.32;4.22;;;;;;;8.67;74.18;149477.34;4991296;28;20370;-68
2023/03/29 08:50:16;;;;;;;3.90;3.50;;;;;;;8.68;72.89;149478.63;4994153;28;20117;-68
2023/03/29 08:52:52;;;;;;;4.13;3.70;;;;;;;8.79;74.24;149508.09;4997745;28;20085;-67
2023/03/29 08:55:42;;;;;;;5.22;3.92;;;;;;;8.76;75.07;149500.38;4991956;28;20041;-68
2023/03/29 08:58:37;;;;;;;4.63;3.80;;;;;;;8.82;74.84;149514.47;4990647;28;20022;-69
2023/03/29 09:01:27;;;;;;;6.00;4.00;;;;;;;8.86;76.02;149523.44;4995802;28;20089;-67
2023/03/29 09:04:15;;;;;;;5.18;3.15;;;;;;;8.71;76.02;149486.34;4988713;28;20042;-68
2023/03/29 09:06:40;;;;;;;3.92;3.38;;;;;;;8.58;76.83;149454.28;4998266;28;20030;-68
2023/03/29 09:09:21;;;;;;;4.75;2.60;;;;;;;8.22;77.97;149364.63;4987364;28;20315;-69
2023/03/29 09:12:33;;;;;;;5.50;4.35;;;;;;;8.42;79.72;149415.84;4995525;28;20026;-68
2023/03/29 09:15:48;;;;;;;3.17;2.83;;;;;;;8.29;79.76;149383.84;5012259;28;20041;-68
2023/03/29 09:18:39;;;;;;;4.63;3.63;;;;;;;8.50;81.93;149433.84;4957704;28;20046;-68
2023/03/29 09:21:49;;;;;;;5.35;3.30;;;;;;;8.53;80.38;149441.50;4986699;28;20243;-69
2023/03/29 09:24:26;;;;;;;4.68;3.22;;;;;;;8.43;81.43;149418.38;4965742;28;20238;-68
2023/03/29 09:27:21;;;;;;;5.35;3.30;;;;;;;8.56;81.55;149449.19;4978452;28;20288;-68
2023/03/29 09:29:56;;;;;;;5.10;3.40;;;;;;;8.40;81.50;149410.72;4987376;28;20110;-69
2023/03/29 09:32:34;;;;;;;6.07;3.00;;;;;;;8.73;81.27;149492.69;4975602;28;20043;-66
2023/03/29 09:35:31;;;;;;;4.80;3.75;;;;;;;8.52;81.79;149438.94;4976041;28;20042;-68
2023/03/29 09:38:02;;;;;;;8.23;3.85;;;;;;;8.42;82.05;149415.84;4973403;28;20051;-68
2023/03/29 09:40:51;;;;;;;5.05;4.43;;;;;;;8.67;82.89;149476.09;4967473;28;20105;-68
2023/03/29 09:43:40;;;;;;;7.30;4.25;;;;;;;8.52;82.41;149438.94;4975881;28;20049;-68
2023/03/29 09:46:41;;;;;;;4.70;4.10;;;;;;;8.55;83.03;149447.91;4977858;28;20157;-67
2023/03/29 09:49:37;;;;;;;5.07;4.55;;;;;;;8.60;83.42;149459.44;4979275;28;20038;-68
2023/03/29 09:52:19;;;;;;;6.43;5.10;;;;;;;8.57;82.98;149451.75;4965873;28;20227;-67
2023/03/29 09:54:48;;;;;;;7.78;4.90;;;;;;;8.70;83.58;149485.03;4965121;28;20047;-68
2023/03/29 09:57:18;;;;;;;6.57;4.45;;;;;;;8.83;81.97;149515.78;4983933;28;20030;-67
2023/03/29 09:59:51;;;;;;;5.30;4.38;;;;;;;8.79;81.49;149506.78;4966128;28;20042;-67
2023/03/29 10:02:19;;;;;;;6.13;3.83;;;;;;;8.56;82.37;149449.19;4977615;28;20026;-68
2023/03/29 10:05:02;;;;;;;6.05;4.22;;;;;;;8.65;84.11;149472.25;4983837;28;20098;-68
2023/03/29 10:07:53;;;;;;;5.10;3.95;;;;;;;8.37;84.88;149403.03;4977279;28;20034;-68
2023/03/29 10:10:37;;;;;;;5.22;3.92;;;;;;;8.54;84.14;149444.06;4971890;28;20053;-70
2023/03/29 10:13:05;;;;;;;5.50;3.78;;;;;;;8.34;85.31;149395.38;4980251;28;20023;-68
2023/03/29 10:15:34;;;;;;;4.30;3.70;;;;;;;8.33;85.51;149392.78;4966930;28;20018;-69
2023/03/29 10:18:12;;;;;;;5.25;3.88;;;;;;;8.46;86.35;149426.16;4983514;28;20073;-69
2023/03/29 10:20:40;;;;;;;4.85;4.00;;;;;;;8.28;86.90;149381.28;4967878;28;20323;-68
2023/03/29 10:23:17;;;;;;;5.80;3.90;;;;;;;8.12;88.63;149341.59;4975606;28;20048;-68
2023/03/29 10:25:43;;;;;;;7.50;4.22;;;;;;;7.99;88.49;149308.31;4975146;28;20031;-68
2023/03/29 10:28:21;;;;;;;6.05;4.28;;;;;;;8.09;88.38;149332.63;4967297;28;20039;-68
2023/03/29 10:30:54;;;;;;;6.00;4.18;;;;;;;7.92;88.69;149291.69;4983708;28;20042;-68
2023/03/29 10:33:23;;;;;;;5.13;4.40;;;;;;;7.91;89.87;149287.88;4969688;28;20050;-69
2023/03/29 10:35:55;;;;;;;4.95;4.43;;;;;;;7.93;90.30;149292.97;4996482;28;20048;-68
2023/03/29 10:38:30;;;;;;;7.60;4.25;;;;;;;7.89;89.77;149282.72;4970113;28;20238;-67
2023/03/29 10:41:10;;;;;;;7.07;4.50;;;;;;;7.99;91.19;149308.31;4973852;28;20046;-68
2023/03/29 10:43:41;;;;;;;8.75;5.10;;;;;;;8.12;90.16;149340.28;4988146;28;20106;-69
2023/03/29 10:46:18;;;;;;;5.07;3.83;;;;;;;7.77;90.63;149254.56;4979197;28;20207;-67
2023/03/29 10:49:05;;;;;;;5.90;5.22;;;;;;;8.11;92.29;149337.78;4982861;28;20034;-68
2023/03/29 10:51:55;;;;;;;4.97;4.47;;;;;;;7.90;91.82;149286.56;4963831;28;20319;-69
2023/03/29 10:54:23;;;;;;;5.95;5.35;;;;;;;7.92;92.70;149290.38;4981958;28;20021;-67
2023/03/29 10:56:55;;;;;;;6.70;5.30;;;;;;;8.09;92.52;149332.63;4982987;28;20090;-67
2023/03/29 10:59:51;;;;;;;9.43;5.90;;;;;;;7.98;92.25;149305.78;4982710;28;20038;-68
2023/03/29 11:02:17;;;;;;;6.20;5.30;;;;;;;8.13;93.31;149342.88;4970204;28;20456;-68
2023/03/29 11:05:01;;;;;;;7.47;5.13;;;;;;;7.84;91.95;149269.91;4963446;28;20110;-69
2023/03/29 11:07:37;;;;;;;9.32;5.50;;;;;;;7.67;93.61;149227.72;4969473;28;20319;-69
2023/03/29 11:10:11;;;;;;;6.30;5.15;;;;;;;7.61;92.75;149213.66;4982450;28;20160;-70
2023/03/29 11:13:15;;;;;;;6.30;5.53;;;;;;;7.82;93.89;149264.81;4982508;28;20030;-67
2023/03/29 11:15:57;;;;;;;5.43;4.43;;;;;;;7.65;94.20;149222.56;4973918;28;20035;-68
2023/03/29 11:18:38;;;;;;;6.53;4.93;;;;;;;7.70;94.53;149235.38;4974287;28;20378;-67
2023/03/29 11:21:43;;;;;;;6.97;5.22;;;;;;;7.69;93.88;149232.81;4976842;28;20031;-68
2023/03/29 11:24:51;;;;;;;6.05;5.10;;;;;;;7.55;95.44;149198.25;4967301;28;20046;-67
2023/03/29 11:27:26;;;;;;;8.20;5.68;;;;;;;7.69;95.78;149234.06;4982481;28;20035;-68
2023/03/29 11:30:22;;;;;;;4.28;3.50;;;;;;;7.47;94.36;149177.78;4968789;28;20148;-68
2023/03/29 11:33:13;;;;;;;7.45;4.93;;;;;;;7.51;94.91;149189.31;4985527;28;20146;-68
2023/03/29 11:36:20;;;;;;;6.20;5.07;;;;;;;7.65;94.76;149222.56;4973347;28;20119;-67
2023/03/29 11:39:10;;;;;;;5.18;4.18;;;;;;;7.62;94.34;149214.91;4986601;28;20038;-67
2023/03/29 11:41:44;;;;;;;4.85;4.38;;;;;;;7.56;92.94;149202.09;4985815;28;20064;-66
2023/03/29 11:44:28;;;;;;;5.07;4.28;;;;;;;7.64;93.25;149221.31;4985087;28;20114;-66
2023/03/29 11:47:08;;;;;;;5.18;3.53;;;;;;;7.45;92.93;149173.94;4976743;28;20031;-68
2023/03/29 11:49:51;;;;;;;5.93;4.57;;;;;;;7.60;93.15;149212.34;4966891;28;20055;-68
2023/03/29 11:52:44;;;;;;;5.00;4.50;;;;;;;7.56;94.23;149202.09;4982125;28;20057;-68
2023/03/29 11:55:29;;;;;;;6.75;4.30;;;;;;;7.60;93.77;149211.06;4982520;28;20283;-68
2023/03/29 11:58:03;;;;;;;4.57;4.18;;;;;;;7.32;94.30;149141.97;4966912;28;20354;-67
2023/03/29 12:03:50;;;;;;;6.03;5.32;;;;;;;7.51;95.28;149189.31;4977360;28;20053;-67
2023/03/29 12:06:40;;;;;;;6.00;5.20;;;;;;;7.56;94.91;149200.84;4985748;28;20038;-67
2023/03/29 12:09:35;;;;;;;7.03;5.30;;;;;;;7.56;94.71;149200.84;4986463;28;20045;-68